Time;durP1;ratioP1;P1;durP2;ratioP2;P2;SDS_P1;SDS_P2;PMS_P1;PMS_P2;Temp;Humidity;BMP_temperature;BMP_pressure;BME280_temperature;BME280_humidity;BME280_pressure;Samples;Min_cycle;Max_cycle;Signal;HPM_P1;HPM_P2
2021/09/12 00:00:13;;;;;;;;;;;;;;;19.48;93.14;100087.00;1691761;83;20172;-87
2021/09/12 00:02:39;;;;;;;;;;;;;;;19.37;93.44;100089.35;1706457;82;20202;-85
2021/09/12 00:05:05;;;;;;;;;;;;;;;19.33;93.60;100081.44;1711000;83;21235;-87
2021/09/12 00:07:35;;;;;;;;;;;;;;;19.33;93.80;100088.13;1704660;83;20194;-88
2021/09/12 00:10:04;;;;;;;;;;;;;;;19.19;94.80;100090.59;1706434;81;20584;-86
2021/09/12 00:12:39;;;;;;;;;;;;;;;19.12;95.24;100098.64;1705839;82;20227;-87
2021/09/12 00:15:08;;;;;;;;;;;;;;;19.01;96.06;100092.09;1701121;83;20218;-86
2021/09/12 00:17:36;;;;;;;;;;;;;;;19.06;95.62;100093.32;1705823;83;21104;-87
2021/09/12 00:20:03;;;;;;;;;;;;;;;18.97;96.51;100093.58;1702078;83;20192;-86
2021/09/12 00:22:30;;;;;;;;;;;;;;;18.88;97.07;100097.53;1709307;83;20658;-87
2021/09/12 00:24:56;;;;;;;;;;;;;;;18.86;97.15;100088.87;1689243;83;20630;-88
2021/09/12 00:27:21;;;;;;;;;;;;;;;18.87;97.04;100089.19;1707598;82;20797;-87
2021/09/12 00:29:47;;;;;;;;;;;;;;;18.82;97.29;100092.99;1706870;83;22042;-86
2021/09/12 00:32:15;;;;;;;;;;;;;;;18.83;97.28;100090.59;1685194;83;20171;-86
2021/09/12 00:34:40;;;;;;;;;;;;;;;18.80;97.32;100095.06;1709523;82;20135;-86
2021/09/12 00:37:08;;;;;;;;;;;;;;;18.80;97.25;100103.09;1711237;83;20212;-87
2021/09/12 00:39:33;;;;;;;;;;;;;;;18.74;97.84;100095.38;1706084;83;20199;-86
2021/09/12 00:42:02;;;;;;;;;;;;;;;18.70;98.26;100093.34;1710693;83;21083;-86
2021/09/12 00:44:28;;;;;;;;;;;;;;;18.63;98.79;100103.55;1708247;83;20172;-88
2021/09/12 00:46:55;;;;;;;;;;;;;;;18.62;98.73;100093.05;1708193;82;20189;-85
2021/09/12 00:49:21;;;;;;;;;;;;;;;18.56;99.20;100097.38;1709288;82;20197;-86
2021/09/12 00:51:48;;;;;;;;;;;;;;;18.48;99.79;100100.30;1709769;82;20247;-88
2021/09/12 00:54:14;;;;;;;;;;;;;;;18.50;99.56;100088.86;1711470;82;21309;-87
2021/09/12 00:56:43;;;;;;;;;;;;;;;18.45;99.64;100092.69;1709243;82;20184;-87
2021/09/12 00:59:14;;;;;;;;;;;;;;;18.46;99.76;100094.34;1708070;82;20196;-87
2021/09/12 01:01:40;;;;;;;;;;;;;;;18.46;99.76;100088.99;1706696;82;20205;-87
2021/09/12 01:04:10;;;;;;;;;;;;;;;18.48;99.44;100092.27;1709606;82;20214;-88
2021/09/12 01:06:35;;;;;;;;;;;;;;;18.44;99.65;100089.70;1709546;82;21130;-88
2021/09/12 01:09:03;;;;;;;;;;;;;;;18.36;100.00;100099.29;1705681;83;20141;-90
2021/09/12 01:11:28;;;;;;;;;;;;;;;18.32;100.00;100099.39;1708866;82;20233;-90
2021/09/12 01:13:54;;;;;;;;;;;;;;;18.28;100.00;100098.47;1706453;82;20435;-89
2021/09/12 01:16:20;;;;;;;;;;;;;;;18.26;100.00;100099.20;1708369;82;20199;-90
2021/09/12 01:18:53;;;;;;;;;;;;;;;18.18;100.00;100096.75;1686952;82;20714;-90
2021/09/12 01:21:21;;;;;;;;;;;;;;;18.17;100.00;100090.28;1711559;82;20267;-92
2021/09/12 01:23:51;;;;;;;;;;;;;;;18.16;100.00;100093.44;1710954;82;20242;-91
2021/09/12 01:26:22;;;;;;;;;;;;;;;18.11;100.00;100099.94;1705731;81;20673;-91
2021/09/12 01:28:48;;;;;;;;;;;;;;;18.10;100.00;100088.92;1708882;82;20521;-90
2021/09/12 01:31:22;;;;;;;;;;;;;;;18.05;100.00;100095.41;1707703;82;21153;-90
2021/09/12 01:33:48;;;;;;;;;;;;;;;17.98;100.00;100092.76;1709560;83;20191;-88
2021/09/12 01:36:14;;;;;;;;;;;;;;;17.93;100.00;100092.03;1706229;83;20259;-87
2021/09/12 01:38:39;;;;;;;;;;;;;;;17.97;100.00;100094.30;1705308;82;20459;-87
2021/09/12 01:41:06;;;;;;;;;;;;;;;17.97;100.00;100088.43;1711734;82;20241;-87
2021/09/12 01:43:31;;;;;;;;;;;;;;;17.98;100.00;100086.60;1712733;82;21107;-87
2021/09/12 01:45:58;;;;;;;;;;;;;;;17.98;100.00;100089.27;1707761;82;20348;-91
2021/09/12 01:48:25;;;;;;;;;;;;;;;17.94;100.00;100087.50;1711799;82;20066;-90
2021/09/12 01:50:51;;;;;;;;;;;;;;;17.93;100.00;100085.88;1709752;82;20138;-93
2021/09/12 01:53:18;;;;;;;;;;;;;;;17.94;100.00;100084.34;1711830;83;20138;-93
2021/09/12 01:55:44;;;;;;;;;;;;;;;17.74;100.00;100059.42;1707261;83;21080;-87
2021/09/12 01:58:09;;;;;;;;;;;;;;;17.91;100.00;100088.76;1710067;83;20215;-89
2021/09/12 02:00:38;;;;;;;;;;;;;;;17.88;100.00;100084.29;1711322;82;20189;-88
2021/09/12 02:03:03;;;;;;;;;;;;;;;17.86;100.00;100083.69;1713321;83;20196;-85
2021/09/12 02:05:32;;;;;;;;;;;;;;;17.90;100.00;100083.09;1704824;82;20111;-84
2021/09/12 02:08:02;;;;;;;;;;;;;;;17.87;100.00;100086.15;1706625;83;20721;-85
2021/09/12 02:10:28;;;;;;;;;;;;;;;17.87;100.00;100084.00;1706788;82;20466;-87
2021/09/12 02:12:58;;;;;;;;;;;;;;;17.85;100.00;100074.86;1702045;83;20589;-85
2021/09/12 02:15:24;;;;;;;;;;;;;;;17.83;100.00;100072.07;1688095;83;20172;-84
2021/09/12 02:17:51;;;;;;;;;;;;;;;17.85;100.00;100070.85;1711154;82;20179;-85
2021/09/12 02:20:17;;;;;;;;;;;;;;;17.94;100.00;100076.33;1707486;82;21157;-85
2021/09/12 02:22:48;;;;;;;;;;;;;;;18.01;100.00;100068.82;1706277;83;20162;-88
2021/09/12 02:25:17;;;;;;;;;;;;;;;18.01;100.00;100062.14;1708042;82;20229;-86
2021/09/12 02:27:42;;;;;;;;;;;;;;;17.98;100.00;100073.24;1688339;82;20175;-84
2021/09/12 02:30:12;;;;;;;;;;;;;;;18.01;100.00;100070.97;1702453;82;20231;-85
2021/09/12 02:32:39;;;;;;;;;;;;;;;18.01;100.00;100070.16;1686696;83;21304;-86
2021/09/12 02:35:10;;;;;;;;;;;;;;;17.97;100.00;100072.92;1714169;81;20464;-85
2021/09/12 02:37:38;;;;;;;;;;;;;;;18.04;100.00;100068.41;1707773;81;20185;-85
2021/09/12 02:40:10;;;;;;;;;;;;;;;18.05;100.00;100072.70;1718708;82;20156;-85
2021/09/12 02:42:38;;;;;;;;;;;;;;;18.00;100.00;100079.19;1704148;83;20173;-86
2021/09/12 02:45:10;;;;;;;;;;;;;;;17.98;100.00;100077.25;1710710;82;22221;-88
2021/09/12 02:47:36;;;;;;;;;;;;;;;18.00;100.00;100069.84;1711600;83;20214;-85
2021/09/12 02:50:06;;;;;;;;;;;;;;;17.94;100.00;100073.66;1704023;83;20219;-86
2021/09/12 02:52:35;;;;;;;;;;;;;;;17.91;100.00;100074.06;1703691;83;20209;-86
2021/09/12 02:54:59;;;;;;;;;;;;;;;17.78;100.00;100078.03;1697099;83;20164;-87
2021/09/12 02:57:25;;;;;;;;;;;;;;;17.76;100.00;100076.91;1710098;83;21225;-88
2021/09/12 02:59:56;;;;;;;;;;;;;;;17.62;100.00;100077.09;1702466;82;20794;-86
2021/09/12 03:02:24;;;;;;;;;;;;;;;17.63;100.00;100076.07;1701579;83;20843;-86
2021/09/12 03:04:49;;;;;;;;;;;;;;;17.63;100.00;100083.56;1683526;83;20178;-86
2021/09/12 03:07:15;;;;;;;;;;;;;;;17.52;100.00;100073.49;1702039;83;20129;-86
2021/09/12 03:09:41;;;;;;;;;;;;;;;17.55;100.00;100076.56;1703048;82;21945;-86
2021/09/12 03:12:08;;;;;;;;;;;;;;;17.50;100.00;100079.03;1704610;83;20679;-86
2021/09/12 03:14:34;;;;;;;;;;;;;;;17.37;100.00;100084.34;1713063;82;20232;-89
2021/09/12 03:17:01;;;;;;;;;;;;;;;17.39;100.00;100079.64;1711085;82;20572;-85
2021/09/12 03:19:27;;;;;;;;;;;;;;;17.40;100.00;100082.59;1707682;81;20182;-87
2021/09/12 03:21:52;;;;;;;;;;;;;;;17.38;100.00;100085.99;1705050;82;21464;-86
2021/09/12 03:24:18;;;;;;;;;;;;;;;17.35;100.00;100081.88;1707550;82;20197;-86
2021/09/12 03:26:44;;;;;;;;;;;;;;;17.30;100.00;100083.52;1703059;82;20266;-86
2021/09/12 03:29:11;;;;;;;;;;;;;;;17.23;100.00;100083.52;1707076;82;20490;-86
2021/09/12 03:31:37;;;;;;;;;;;;;;;17.15;100.00;100077.84;1708674;81;20348;-86
2021/09/12 03:34:02;;;;;;;;;;;;;;;17.17;100.00;100083.80;1708343;82;21053;-86
2021/09/12 03:36:30;;;;;;;;;;;;;;;17.15;100.00;100088.52;1711952;82;20220;-86
2021/09/12 03:38:57;;;;;;;;;;;;;;;17.16;100.00;100086.14;1706791;82;20158;-86
2021/09/12 03:41:23;;;;;;;;;;;;;;;17.13;100.00;100093.22;1710107;82;20492;-86
2021/09/12 03:43:48;;;;;;;;;;;;;;;17.13;100.00;100095.89;1714841;82;20571;-87
2021/09/12 03:46:16;;;;;;;;;;;;;;;17.11;100.00;100095.27;1706069;81;21091;-86
2021/09/12 03:48:42;;;;;;;;;;;;;;;17.18;100.00;100086.78;1710778;83;21107;-86
2021/09/12 03:51:08;;;;;;;;;;;;;;;17.19;100.00;100091.08;1704157;83;20198;-87
2021/09/12 03:53:34;;;;;;;;;;;;;;;17.23;100.00;100091.00;1699036;83;20207;-87
2021/09/12 03:56:02;;;;;;;;;;;;;;;17.12;100.00;100098.75;1666266;83;20164;-86
2021/09/12 03:58:27;;;;;;;;;;;;;;;17.13;100.00;100096.41;1693193;83;20166;-87
2021/09/12 04:00:53;;;;;;;;;;;;;;;17.25;100.00;100089.98;1693724;83;20135;-85
2021/09/12 04:03:18;;;;;;;;;;;;;;;17.26;100.00;100094.28;1693398;83;20163;-85
2021/09/12 04:05:44;;;;;;;;;;;;;;;17.20;100.00;100090.06;1694594;83;20496;-85
2021/09/12 04:08:13;;;;;;;;;;;;;;;17.10;100.00;100090.95;1698513;83;20127;-86
2021/09/12 04:10:39;;;;;;;;;;;;;;;17.05;100.00;100098.73;1693665;82;21262;-87
2021/09/12 04:13:06;;;;;;;;;;;;;;;17.08;100.00;100091.67;1694410;83;20796;-87
2021/09/12 04:15:32;;;;;;;;;;;;;;;17.05;100.00;100093.41;1695842;83;20181;-87
2021/09/12 04:17:58;;;;;;;;;;;;;;;17.09;100.00;100090.66;1698390;83;20314;-87
2021/09/12 04:20:23;;;;;;;;;;;;;;;17.06;100.00;100093.73;1696667;83;20842;-85
2021/09/12 04:22:49;;;;;;;;;;;;;;;17.05;100.00;100091.55;1693352;83;21137;-85
2021/09/12 04:25:15;;;;;;;;;;;;;;;17.02;100.00;100091.14;1669803;83;20207;-86
2021/09/12 04:27:42;;;;;;;;;;;;;;;17.05;100.00;100094.73;1688993;83;20147;-85
2021/09/12 04:30:09;;;;;;;;;;;;;;;16.97;100.00;100096.26;1694678;83;20453;-87
2021/09/12 04:32:42;;;;;;;;;;;;;;;17.02;100.00;100093.80;1692319;83;20209;-87
2021/09/12 04:35:09;;;;;;;;;;;;;;;17.10;100.00;100098.95;1696253;82;21069;-87
2021/09/12 04:37:35;;;;;;;;;;;;;;;17.04;100.00;100093.92;1695169;82;20227;-86
2021/09/12 04:40:02;;;;;;;;;;;;;;;17.05;100.00;100100.08;1690732;82;20207;-85
2021/09/12 04:42:28;;;;;;;;;;;;;;;17.00;100.00;100098.00;1696733;83;20226;-86
2021/09/12 04:44:53;;;;;;;;;;;;;;;16.99;100.00;100102.20;1698090;82;20133;-83
2021/09/12 04:47:21;;;;;;;;;;;;;;;16.98;100.00;100107.22;1690564;83;21326;-84
2021/09/12 04:49:47;;;;;;;;;;;;;;;16.92;100.00;100104.86;1671571;84;20606;-84
2021/09/12 04:52:12;;;;;;;;;;;;;;;16.92;100.00;100104.02;1702610;83;20194;-85
2021/09/12 04:54:38;;;;;;;;;;;;;;;16.84;100.00;100112.48;1707579;82;20278;-84
2021/09/12 04:57:04;;;;;;;;;;;;;;;16.88;100.00;100105.45;1707075;83;20257;-85
2021/09/12 04:59:30;;;;;;;;;;;;;;;16.81;100.00;100108.88;1710689;83;21258;-85
2021/09/12 05:02:00;;;;;;;;;;;;;;;16.71;100.00;100109.74;1703974;82;20881;-85
2021/09/12 05:04:28;;;;;;;;;;;;;;;16.73;100.00;100117.02;1705157;82;20190;-84
2021/09/12 05:06:57;;;;;;;;;;;;;;;16.83;100.00;100101.49;1684897;83;20161;-85
2021/09/12 05:09:27;;;;;;;;;;;;;;;16.80;100.00;100105.89;1711218;82;20137;-85
2021/09/12 05:11:52;;;;;;;;;;;;;;;16.90;100.00;100099.40;1703183;82;20170;-85
2021/09/12 05:14:24;;;;;;;;;;;;;;;16.94;100.00;100105.47;1702470;81;20201;-87
2021/09/12 05:16:49;;;;;;;;;;;;;;;17.02;100.00;100101.28;1704418;83;20184;-86
2021/09/12 05:19:15;;;;;;;;;;;;;;;17.04;100.00;100103.75;1711646;82;20521;-85
2021/09/12 05:21:43;;;;;;;;;;;;;;;17.16;100.00;100102.16;1701592;83;20150;-84
2021/09/12 05:24:10;;;;;;;;;;;;;;;17.19;100.00;100103.09;1703002;82;21340;-83
2021/09/12 05:26:36;;;;;;;;;;;;;;;17.11;100.00;100100.61;1709189;82;20133;-84
2021/09/12 05:29:05;;;;;;;;;;;;;;;17.19;100.00;100096.42;1703705;82;20213;-88
2021/09/12 05:31:32;;;;;;;;;;;;;;;17.15;100.00;100104.53;1706636;82;20836;-85
2021/09/12 05:33:58;;;;;;;;;;;;;;;17.09;100.00;100100.00;1705505;83;20529;-85
2021/09/12 05:36:25;;;;;;;;;;;;;;;17.04;100.00;100099.75;1712167;82;21325;-86
2021/09/12 05:38:51;;;;;;;;;;;;;;;17.15;100.00;100101.86;1709746;82;20166;-86
2021/09/12 05:41:19;;;;;;;;;;;;;;;17.30;100.00;100100.34;1711037;82;20237;-85
2021/09/12 05:43:46;;;;;;;;;;;;;;;17.27;100.00;100095.94;1700599;83;20219;-85
2021/09/12 05:46:14;;;;;;;;;;;;;;;17.18;100.00;100098.80;1700536;83;20800;-85
2021/09/12 05:48:46;;;;;;;;;;;;;;;17.38;100.00;100103.34;1701348;83;21327;-88
2021/09/12 05:51:21;;;;;;;;;;;;;;;17.45;100.00;100098.85;1703034;82;20218;-87
2021/09/12 05:53:46;;;;;;;;;;;;;;;17.50;100.00;100106.25;1706370;81;20817;-87
2021/09/12 05:56:13;;;;;;;;;;;;;;;17.42;100.00;100099.26;1709659;83;20157;-85
2021/09/12 05:58:39;;;;;;;;;;;;;;;17.55;100.00;100099.27;1711165;82;20134;-86
2021/09/12 06:01:07;;;;;;;;;;;;;;;17.58;100.00;100098.86;1705552;83;21076;-83
2021/09/12 06:03:37;;;;;;;;;;;;;;;17.63;100.00;100094.77;1705789;83;20758;-88
2021/09/12 06:06:06;;;;;;;;;;;;;;;17.69;100.00;100100.63;1705010;81;20530;-84
2021/09/12 06:08:33;;;;;;;;;;;;;;;17.75;100.00;100104.63;1704400;83;20230;-86
2021/09/12 06:11:00;;;;;;;;;;;;;;;17.84;100.00;100096.44;1702886;83;20179;-87
2021/09/12 06:13:26;;;;;;;;;;;;;;;17.91;100.00;100098.11;1703121;83;21351;-86
2021/09/12 06:15:52;;;;;;;;;;;;;;;17.97;100.00;100098.30;1712108;82;20140;-86
2021/09/12 06:18:20;;;;;;;;;;;;;;;17.98;100.00;100099.96;1716819;82;20285;-86
2021/09/12 06:20:45;;;;;;;;;;;;;;;17.94;100.00;100100.38;1709943;83;20146;-87
2021/09/12 06:23:15;;;;;;;;;;;;;;;18.00;100.00;100106.72;1709372;82;20624;-87
2021/09/12 06:25:41;;;;;;;;;;;;;;;18.07;100.00;100100.03;1707299;83;21147;-87
2021/09/12 06:28:07;;;;;;;;;;;;;;;18.17;100.00;100099.11;1709539;83;20284;-87
2021/09/12 06:30:32;;;;;;;;;;;;;;;18.30;100.00;100107.12;1708580;83;20215;-87
2021/09/12 06:32:59;;;;;;;;;;;;;;;18.36;100.00;100110.80;1705383;82;20154;-87
2021/09/12 06:35:25;;;;;;;;;;;;;;;18.42;100.00;100105.14;1709436;83;20307;-87
2021/09/12 06:37:51;;;;;;;;;;;;;;;18.59;100.00;100102.84;1707318;83;21127;-88
2021/09/12 06:40:17;;;;;;;;;;;;;;;18.77;100.00;100112.88;1715433;82;20117;-86
2021/09/12 06:42:43;;;;;;;;;;;;;;;18.74;100.00;100114.64;1703637;83;20169;-86
2021/09/12 06:45:09;;;;;;;;;;;;;;;18.71;100.00;100116.39;1708948;83;20542;-87
2021/09/12 06:47:36;;;;;;;;;;;;;;;18.89;100.00;100115.20;1712085;83;20258;-88
2021/09/12 06:50:03;;;;;;;;;;;;;;;18.96;100.00;100120.55;1711732;82;21255;-87
2021/09/12 06:52:32;;;;;;;;;;;;;;;19.07;100.00;100121.73;1707334;83;20099;-85
2021/09/12 06:54:58;;;;;;;;;;;;;;;19.18;100.00;100113.03;1709245;83;20164;-86
2021/09/12 06:57:26;;;;;;;;;;;;;;;19.06;100.00;100128.12;1675700;83;20137;-86
2021/09/12 06:59:54;;;;;;;;;;;;;;;18.99;100.00;100131.64;1711443;82;20131;-86
2021/09/12 07:02:23;;;;;;;;;;;;;;;19.05;100.00;100139.84;1703670;83;20146;-85
2021/09/12 07:04:50;;;;;;;;;;;;;;;18.99;100.00;100137.00;1704769;83;20123;-89
2021/09/12 07:07:15;;;;;;;;;;;;;;;18.85;100.00;100131.39;1689986;83;20083;-88
2021/09/12 07:09:41;;;;;;;;;;;;;;;18.97;100.00;100136.39;1711676;82;20131;-88
2021/09/12 07:12:07;;;;;;;;;;;;;;;19.03;100.00;100136.57;1707396;81;20137;-88
2021/09/12 07:14:32;;;;;;;;;;;;;;;19.12;100.00;100138.78;1711464;82;21645;-86
2021/09/12 07:17:01;;;;;;;;;;;;;;;19.13;100.00;100142.30;1709311;82;20156;-89
2021/09/12 07:19:30;;;;;;;;;;;;;;;19.11;100.00;100149.70;1709893;82;20114;-89
2021/09/12 07:21:57;;;;;;;;;;;;;;;19.16;100.00;100142.69;1708345;82;20176;-87
2021/09/12 07:24:26;;;;;;;;;;;;;;;19.27;100.00;100137.71;1697960;82;20261;-89
2021/09/12 07:26:52;;;;;;;;;;;;;;;19.44;100.00;100141.52;1693877;83;21040;-87
2021/09/12 07:29:17;;;;;;;;;;;;;;;19.54;100.00;100139.70;1707554;82;20146;-88
2021/09/12 07:31:44;;;;;;;;;;;;;;;19.50;100.00;100142.53;1706573;82;20818;-89
2021/09/12 07:34:12;;;;;;;;;;;;;;;19.58;100.00;100139.59;1702768;82;20141;-89
2021/09/12 07:36:39;;;;;;;;;;;;;;;19.60;100.00;100138.84;1689827;83;20214;-88
2021/09/12 07:39:08;;;;;;;;;;;;;;;19.67;100.00;100138.30;1706941;82;21018;-87
2021/09/12 07:41:36;;;;;;;;;;;;;;;19.71;100.00;100144.03;1691335;82;20538;-88
2021/09/12 07:44:02;;;;;;;;;;;;;;;19.74;100.00;100139.05;1708678;82;20440;-87
2021/09/12 07:46:30;;;;;;;;;;;;;;;19.80;100.00;100149.98;1709855;81;20189;-86
2021/09/12 07:49:01;;;;;;;;;;;;;;;19.89;100.00;100144.67;1707749;83;20197;-92
2021/09/12 07:51:26;;;;;;;;;;;;;;;20.03;100.00;100147.54;1707258;82;21077;-86
2021/09/12 07:53:54;;;;;;;;;;;;;;;20.23;100.00;100151.92;1708631;83;20167;-88
2021/09/12 07:56:25;;;;;;;;;;;;;;;20.44;100.00;100144.79;1707832;83;20225;-88
2021/09/12 07:58:51;;;;;;;;;;;;;;;20.58;100.00;100154.06;1715014;82;20760;-89
2021/09/12 08:01:18;;;;;;;;;;;;;;;20.57;100.00;100155.09;1718147;81;20149;-84
2021/09/12 08:03:44;;;;;;;;;;;;;;;20.71;100.00;100141.89;1707224;82;21077;-88
2021/09/12 08:06:17;;;;;;;;;;;;;;;20.67;100.00;100146.05;1716110;83;20168;-88
2021/09/12 08:08:44;;;;;;;;;;;;;;;20.82;100.00;100150.22;1705515;83;20449;-87
2021/09/12 08:11:11;;;;;;;;;;;;;;;20.89;100.00;100147.75;1703385;82;20170;-86
2021/09/12 08:13:39;;;;;;;;;;;;;;;20.90;99.55;100146.72;1702200;82;20144;-86
2021/09/12 08:16:07;;;;;;;;;;;;;;;21.02;99.25;100148.14;1717538;82;21149;-88
2021/09/12 08:18:37;;;;;;;;;;;;;;;21.12;98.86;100144.38;1712287;81;20241;-90
2021/09/12 08:21:02;;;;;;;;;;;;;;;21.19;98.28;100143.48;1711496;83;20144;-86
2021/09/12 08:23:29;;;;;;;;;;;;;;;21.22;98.13;100149.20;1708703;82;20564;-87
2021/09/12 08:25:55;;;;;;;;;;;;;;;21.33;97.65;100144.94;1703407;82;20258;-86
2021/09/12 08:28:24;;;;;;;;;;;;;;;21.40;97.46;100148.89;1709078;82;21076;-85
2021/09/12 08:30:50;;;;;;;;;;;;;;;21.54;96.80;100146.88;1713227;82;20750;-88
2021/09/12 08:33:16;;;;;;;;;;;;;;;21.53;96.48;100152.75;1709838;82;20175;-88
2021/09/12 08:35:43;;;;;;;;;;;;;;;21.40;96.36;100145.67;1708201;82;20667;-88
2021/09/12 08:38:09;;;;;;;;;;;;;;;21.36;96.33;100144.48;1709807;82;20233;-88
2021/09/12 08:40:36;;;;;;;;;;;;;;;21.49;96.51;100148.37;1715318;83;22016;-88
2021/09/12 08:43:06;;;;;;;;;;;;;;;21.67;95.58;100153.38;1706099;82;20263;-87
2021/09/12 08:45:34;;;;;;;;;;;;;;;21.62;95.29;100151.91;1707490;82;20120;-88
2021/09/12 08:48:01;;;;;;;;;;;;;;;21.73;94.83;100144.41;1707538;82;20501;-88
2021/09/12 08:50:28;;;;;;;;;;;;;;;21.82;94.43;100147.05;1708110;82;20188;-87
2021/09/12 08:52:54;;;;;;;;;;;;;;;21.94;94.05;100143.56;1706568;82;20193;-86
2021/09/12 08:55:19;;;;;;;;;;;;;;;21.96;92.52;100143.63;1710713;82;20182;-84
2021/09/12 08:57:55;;;;;;;;;;;;;;;22.01;91.63;100146.97;1708586;83;20547;-86
2021/09/12 09:00:24;;;;;;;;;;;;;;;22.05;91.02;100148.16;1706850;82;20178;-87
2021/09/12 09:02:50;;;;;;;;;;;;;;;21.99;90.95;100149.89;1707174;82;20633;-86
2021/09/12 09:05:22;;;;;;;;;;;;;;;21.97;90.80;100147.12;1706720;83;21131;-86
2021/09/12 09:07:50;;;;;;;;;;;;;;;21.99;89.89;100149.89;1704985;82;20166;-87
2021/09/12 09:10:22;;;;;;;;;;;;;;;22.04;89.75;100147.31;1715029;82;20528;-87
2021/09/12 09:12:46;;;;;;;;;;;;;;;22.18;89.26;100137.69;1704728;83;20501;-86
2021/09/12 09:15:20;;;;;;;;;;;;;;;22.20;88.91;100141.80;1704782;83;20273;-85
2021/09/12 09:17:52;;;;;;;;;;;;;;;;;;1700450;82;20659;-86
2021/09/12 09:20:29;;;;;;;;;;;;;;;22.65;87.18;100143.60;1707762;82;20491;-87
2021/09/12 09:22:57;;;;;;;;;;;;;;;22.71;86.73;100148.05;1706049;82;20183;-85
2021/09/12 09:25:24;;;;;;;;;;;;;;;22.69;86.29;100137.52;1703985;83;20193;-87
2021/09/12 09:28:06;;;;;;;;;;;;;;;22.78;86.36;100147.40;1703629;82;20184;-85
2021/09/12 09:30:37;;;;;;;;;;;;;;;22.62;85.18;100149.46;1704825;82;21989;-87
2021/09/12 09:33:22;;;;;;;;;;;;;;;22.52;86.24;100146.84;1683787;83;20273;-85
2021/09/12 09:36:06;;;;;;;;;;;;;;;22.54;86.01;100150.13;1699964;82;20214;-84
2021/09/12 09:38:36;;;;;;;;;;;;;;;22.54;85.90;100136.67;1703913;83;20230;-85
2021/09/12 09:41:13;;;;;;;;;;;;;;;22.67;85.02;100143.67;1683968;83;20635;-85
2021/09/12 09:43:48;;;;;;;;;;;;;;;22.75;85.35;100139.80;1704799;82;21137;-85
2021/09/12 09:46:31;;;;;;;;;;;;;;;22.81;85.06;100137.50;1702185;83;20617;-87
2021/09/12 09:49:00;;;;;;;;;;;;;;;22.84;85.04;100135.68;1703580;82;21036;-85
2021/09/12 09:51:29;;;;;;;;;;;;;;;22.77;84.26;100124.22;1697265;83;20246;-90
2021/09/12 09:53:58;;;;;;;;;;;;;;;22.80;84.30;100125.09;1708603;82;20138;-87
2021/09/12 09:56:23;;;;;;;;;;;;;;;22.86;84.50;100128.17;1703402;83;20515;-85
2021/09/12 09:58:49;;;;;;;;;;;;;;;22.93;84.32;100134.25;1706891;83;20458;-86
2021/09/12 10:01:15;;;;;;;;;;;;;;;22.88;83.38;100131.44;1707160;83;21474;-85
2021/09/12 10:03:42;;;;;;;;;;;;;;;22.92;83.14;100126.41;1705187;83;20512;-88
2021/09/12 10:06:10;;;;;;;;;;;;;;;22.89;83.45;100119.63;1683797;83;20273;-89
2021/09/12 10:08:35;;;;;;;;;;;;;;;22.92;83.09;100119.14;1704154;83;20166;-84
2021/09/12 10:11:06;;;;;;;;;;;;;;;22.88;83.17;100112.59;1703214;83;20133;-84
2021/09/12 10:13:33;;;;;;;;;;;;;;;22.85;82.76;100115.76;1713243;82;20188;-84
2021/09/12 10:15:58;;;;;;;;;;;;;;;22.90;83.23;100115.88;1706766;83;20220;-85
2021/09/12 10:18:27;;;;;;;;;;;;;;;22.84;83.74;100118.18;1705020;83;20316;-84
2021/09/12 10:21:00;;;;;;;;;;;;;;;22.94;83.56;100122.41;1705153;83;21185;-86
2021/09/12 10:23:30;;;;;;;;;;;;;;;22.78;83.53;100117.78;1700802;82;20174;-81
2021/09/12 10:26:02;;;;;;;;;;;;;;;22.85;83.58;100110.38;1698733;83;20181;-83
2021/09/12 10:28:32;;;;;;;;;;;;;;;22.82;83.52;100119.46;1709307;82;20281;-83
2021/09/12 10:30:59;;;;;;;;;;;;;;;22.98;82.87;100111.99;1701640;83;20207;-83
2021/09/12 10:33:29;;;;;;;;;;;;;;;23.15;82.59;100106.70;1703995;83;20952;-85
2021/09/12 10:36:03;;;;;;;;;;;;;;;23.22;81.74;100107.34;1684121;83;39295;-83
2021/09/12 10:38:40;;;;;;;;;;;;;;;23.35;81.42;100113.50;1704601;81;20150;-86
2021/09/12 10:41:09;;;;;;;;;;;;;;;23.29;80.98;100108.03;1703489;83;20154;-83
2021/09/12 10:43:43;;;;;;;;;;;;;;;23.15;81.20;100104.00;1702650;83;20344;-83
2021/09/12 10:46:19;;;;;;;;;;;;;;;23.14;81.67;100105.05;1704189;83;21169;-87
2021/09/12 10:48:47;;;;;;;;;;;;;;;23.21;81.45;100111.13;1700259;82;20257;-86
2021/09/12 10:51:28;;;;;;;;;;;;;;;23.17;81.16;100105.91;1703952;82;20189;-88
2021/09/12 10:54:01;;;;;;;;;;;;;;;23.17;81.84;100108.61;1702992;82;20647;-91
2021/09/12 10:56:32;;;;;;;;;;;;;;;23.25;81.13;100107.41;1690523;83;20212;-92
2021/09/12 10:59:12;;;;;;;;;;;;;;;23.33;81.12;100103.50;1695839;83;22007;-91
2021/09/12 11:01:48;;;;;;;;;;;;;;;23.43;81.26;100094.23;1676056;83;20219;-89
2021/09/12 11:04:16;;;;;;;;;;;;;;;23.39;80.55;100095.80;1694678;83;20186;-90
2021/09/12 11:06:47;;;;;;;;;;;;;;;23.36;79.69;100097.09;1694510;83;20258;-88
2021/09/12 11:09:24;;;;;;;;;;;;;;;23.24;79.51;100094.47;1688813;83;20204;-87
2021/09/12 11:11:56;;;;;;;;;;;;;;;23.24;79.87;100089.09;1696686;82;20684;-89
2021/09/12 11:14:23;;;;;;;;;;;;;;;23.21;79.96;100090.91;1689392;83;20218;-93
2021/09/12 11:16:52;;;;;;;;;;;;;;;23.18;78.96;100095.44;1696052;83;20274;-94
2021/09/12 11:19:20;;;;;;;;;;;;;;;23.23;79.20;100092.83;1693605;83;20186;-90
2021/09/12 11:21:49;;;;;;;;;;;;;;;23.29;78.56;100086.48;1692638;83;20158;-91
2021/09/12 11:24:27;;;;;;;;;;;;;;;23.41;78.46;100085.59;1691877;83;21068;-92
2021/09/12 11:26:57;;;;;;;;;;;;;;;23.52;78.42;100076.61;1694363;83;20156;-90
2021/09/12 11:29:28;;;;;;;;;;;;;;;23.70;78.24;100080.16;1690610;83;20157;-92
2021/09/12 11:32:04;;;;;;;;;;;;;;;23.73;77.82;100081.02;1699449;83;20148;-90
2021/09/12 11:34:32;;;;;;;;;;;;;;;23.70;77.50;100073.41;1694640;83;20114;-90
2021/09/12 11:37:06;;;;;;;;;;;;;;;23.69;77.91;100067.18;1692901;83;20995;-91
2021/09/12 11:39:33;;;;;;;;;;;;;;;23.69;78.23;100069.07;1694791;83;20188;-92
2021/09/12 11:42:02;;;;;;;;;;;;;;;23.52;78.59;100069.88;1690689;83;20199;-88
2021/09/12 11:44:32;;;;;;;;;;;;;;;23.48;79.38;100072.78;1686304;83;20185;-88
2021/09/12 11:46:59;;;;;;;;;;;;;;;23.52;79.55;100063.13;1689567;83;20184;-88
2021/09/12 11:49:26;;;;;;;;;;;;;;;23.60;79.70;100065.44;1665784;83;20504;-87
2021/09/12 11:51:55;;;;;;;;;;;;;;;23.51;79.56;100064.21;1695384;83;20189;-93
2021/09/12 11:54:27;;;;;;;;;;;;;;;23.29;80.78;100078.39;1703376;82;20215;-87
2021/09/12 11:57:06;;;;;;;;;;;;;;;23.23;75.66;100080.70;1699804;83;20742;-90
2021/09/12 11:59:33;;;;;;;;;;;;;;;23.11;74.30;100089.37;1700573;82;20520;-85
2021/09/12 12:02:00;;;;;;;;;;;;;;;23.05;73.46;100085.72;1705048;82;21146;-84
2021/09/12 12:04:29;;;;;;;;;;;;;;;23.09;74.88;100082.06;1689942;83;20345;-84
2021/09/12 12:07:00;;;;;;;;;;;;;;;23.06;76.92;100086.55;1709075;83;20118;-87
2021/09/12 12:09:31;;;;;;;;;;;;;;;23.14;77.37;100070.03;1713771;82;20193;-85
2021/09/12 12:12:06;;;;;;;;;;;;;;;23.21;77.55;100077.45;1703300;83;20198;-90
2021/09/12 12:14:32;;;;;;;;;;;;;;;23.13;76.88;100067.03;1703667;83;21665;-83
2021/09/12 12:17:05;;;;;;;;;;;;;;;23.27;77.29;100064.36;1704150;82;20217;-85
2021/09/12 12:19:35;;;;;;;;;;;;;;;23.37;76.89;100069.61;1702307;82;20178;-84
2021/09/12 12:22:05;;;;;;;;;;;;;;;23.54;76.61;100067.77;1707780;83;20156;-83
2021/09/12 12:24:43;;;;;;;;;;;;;;;23.49;75.99;100059.58;1707779;83;20330;-88
2021/09/12 12:27:11;;;;;;;;;;;;;;;23.63;75.99;100051.47;1691958;83;20605;-86
2021/09/12 12:29:40;;;;;;;;;;;;;;;23.50;76.10;100057.17;1703163;83;20139;-88
2021/09/12 12:32:07;;;;;;;;;;;;;;;23.56;76.18;100056.20;1707092;82;20210;-86
2021/09/12 12:34:40;;;;;;;;;;;;;;;23.73;75.00;100048.66;1706043;83;20519;-84